createdAt,value
2023-05-19T00:00:57.780Z,76.8637
2023-05-19T00:02:00.548Z,76.8903
2023-05-19T00:03:03.431Z,76.9100
2023-05-19T00:04:06.253Z,76.9285
2023-05-19T00:05:08.311Z,76.9406
2023-05-19T00:06:10.403Z,76.9495
2023-05-19T00:07:13.032Z,76.9576
2023-05-19T00:08:15.976Z,76.9680
2023-05-19T00:20:40.034Z,77.0963
2023-05-19T00:21:42.182Z,77.1122
2023-05-19T00:22:44.266Z,77.1175
2023-05-19T00:24:48.281Z,77.1311
2023-05-19T00:25:50.353Z,77.1372
2023-05-19T00:26:52.473Z,77.1394
2023-05-19T00:27:54.537Z,77.1524
2023-05-19T00:28:56.621Z,77.1600
2023-05-19T00:29:59.513Z,77.1684
2023-05-19T00:31:02.804Z,77.1811
2023-05-19T00:34:06.631Z,77.2223
2023-05-19T00:41:19.520Z,77.2828
2023-05-19T00:42:22.229Z,77.2868
2023-05-19T00:43:24.860Z,77.2933
2023-05-19T00:44:28.157Z,77.2968
2023-05-19T00:47:42.720Z,77.3224
2023-05-19T00:55:51.497Z,77.3529
2023-05-19T00:56:53.568Z,77.3567
2023-05-19T00:57:55.649Z,77.3575
2023-05-19T00:58:58.434Z,77.3581
2023-05-19T01:00:00.603Z,77.3619
2023-05-19T01:01:02.722Z,77.3668
2023-05-19T01:02:04.785Z,77.3791
2023-05-19T01:04:08.907Z,77.4096
2023-05-19T01:05:11.033Z,77.4267
2023-05-19T01:06:13.136Z,77.4420
2023-05-19T01:07:15.211Z,77.4503
2023-05-19T01:08:17.304Z,77.4552
2023-05-19T01:09:19.390Z,77.4580
2023-05-19T01:10:22.069Z,77.4547
2023-05-19T01:11:24.913Z,77.4517
2023-05-19T01:12:26.953Z,77.4469
2023-05-19T01:13:29.642Z,77.4450
2023-05-19T01:14:31.699Z,77.4427
2023-05-19T01:15:34.488Z,77.4338
2023-05-19T01:16:36.617Z,77.4282
2023-05-19T01:17:39.403Z,77.4160
2023-05-19T01:18:42.107Z,77.4098
2023-05-19T01:19:44.277Z,77.4082
2023-05-19T01:20:46.345Z,77.4061
2023-05-19T01:21:48.416Z,77.4010
2023-05-19T01:22:50.485Z,77.3901
2023-05-19T01:23:53.634Z,77.3953
2023-05-19T01:24:52.840Z,77.4104
2023-05-19T01:25:56.252Z,77.4225
2023-05-19T01:28:00.124Z,77.4509
2023-05-19T01:29:02.897Z,77.4523
2023-05-19T01:30:04.954Z,77.4622
2023-05-19T01:31:07.032Z,77.4705
2023-05-19T01:33:11.720Z,77.4809
2023-05-19T01:34:14.610Z,77.4831
2023-05-19T01:35:16.734Z,77.4937
2023-05-19T01:36:18.817Z,77.5043
2023-05-19T01:37:21.137Z,77.5121
2023-05-19T01:38:23.186Z,77.5194
2023-05-19T01:39:25.283Z,77.5281
2023-05-19T01:41:29.969Z,77.5388
2023-05-19T01:42:32.107Z,77.5364
2023-05-19T01:43:34.216Z,77.5393
2023-05-19T01:44:36.305Z,77.5396
2023-05-19T01:45:38.912Z,77.5478
2023-05-19T01:46:41.023Z,77.5566
2023-05-19T01:47:43.136Z,77.5700
2023-05-19T01:48:45.185Z,77.5752
2023-05-19T01:49:48.408Z,77.5772
2023-05-19T01:50:49.012Z,77.5837
2023-05-19T01:52:50.715Z,77.5891
2023-05-19T01:53:53.675Z,77.6211
2023-05-19T01:54:56.446Z,77.6573
2023-05-19T01:55:58.548Z,77.6890
2023-05-19T01:57:01.234Z,77.7146
2023-05-19T01:58:03.390Z,77.7386
2023-05-19T01:59:05.501Z,77.7632
2023-05-19T02:00:07.549Z,77.7859
2023-05-19T02:01:10.433Z,77.8023
2023-05-19T02:02:13.156Z,77.8195
2023-05-19T02:03:15.952Z,77.8323
2023-05-19T02:04:18.089Z,77.8495
2023-05-19T02:05:20.116Z,77.8695
2023-05-19T02:06:22.917Z,77.8927
2023-05-19T02:07:25.636Z,77.9129
2023-05-19T02:08:27.730Z,77.9226
2023-05-19T02:09:29.795Z,77.9375
2023-05-19T02:10:33.177Z,77.9463
2023-05-19T02:11:33.539Z,77.9523
2023-05-19T02:12:34.565Z,77.9594
2023-05-19T02:13:36.650Z,77.9677
2023-05-19T02:14:39.422Z,77.9697
2023-05-19T02:15:48.614Z,77.9715
2023-05-19T02:22:52.630Z,78.0381
2023-05-19T02:25:55.627Z,78.0741
2023-05-19T02:26:57.694Z,78.0792
2023-05-19T02:27:59.799Z,78.0873
2023-05-19T02:29:01.807Z,78.0906
2023-05-19T02:30:03.876Z,78.0952
2023-05-19T02:31:07.212Z,78.0947
2023-05-19T02:42:24.863Z,78.1946
2023-05-19T02:44:29.587Z,78.1978
2023-05-19T02:45:32.482Z,78.2065
2023-05-19T02:46:34.585Z,78.2211
2023-05-19T02:47:37.314Z,78.2246
2023-05-19T02:48:40.135Z,78.2331
2023-05-19T02:49:43.892Z,78.2430
2023-05-19T02:50:43.732Z,78.2503
2023-05-19T02:51:45.980Z,78.2604
2023-05-19T02:52:48.701Z,78.2697
2023-05-19T02:53:51.499Z,78.2764
2023-05-19T02:54:54.274Z,78.2917
2023-05-19T02:55:57.029Z,78.3058
2023-05-19T02:56:59.068Z,78.3248
2023-05-19T02:58:01.181Z,78.3481
2023-05-19T02:59:03.241Z,78.3546
2023-05-19T03:00:06.044Z,78.3633
2023-05-19T03:01:06.245Z,78.3776
2023-05-19T03:02:08.493Z,78.3770
2023-05-19T03:04:13.294Z,78.4068
2023-05-19T03:05:16.038Z,78.4283
2023-05-19T03:06:18.942Z,78.4471
2023-05-19T03:09:26.019Z,78.4801
2023-05-19T03:10:28.097Z,78.4708
2023-05-19T03:11:31.159Z,78.4704
2023-05-19T03:14:34.674Z,78.5143
2023-05-19T03:16:39.676Z,78.5469
2023-05-19T03:19:43.378Z,78.5651
2023-05-19T03:20:45.471Z,78.5649
2023-05-19T03:21:48.435Z,78.5576
2023-05-19T03:22:48.458Z,78.5452
2023-05-19T03:25:52.912Z,78.5002
2023-05-19T03:30:02.426Z,78.4795
2023-05-19T03:31:02.970Z,78.4527
2023-05-19T03:32:05.066Z,78.4181
2023-05-19T03:39:18.904Z,78.1800
2023-05-19T03:40:21.573Z,78.1498
2023-05-19T03:41:23.645Z,78.1124
2023-05-19T03:42:26.335Z,78.1124
2023-05-19T03:43:29.037Z,78.1961
2023-05-19T03:44:31.891Z,78.2871
2023-05-19T03:45:34.687Z,78.3420
2023-05-19T03:46:37.393Z,78.3928
2023-05-19T03:48:42.159Z,78.4650
2023-05-19T03:49:44.919Z,78.4924
2023-05-19T03:50:47.658Z,78.4884
2023-05-19T03:51:49.746Z,78.4555
2023-05-19T03:52:57.571Z,78.3989
2023-05-19T03:53:54.433Z,78.3458
2023-05-19T03:54:57.064Z,78.2936
2023-05-19T03:55:59.192Z,78.2590
2023-05-19T03:58:03.324Z,78.2356
2023-05-19T03:59:05.465Z,78.2199
2023-05-19T04:01:10.756Z,78.3292
2023-05-19T04:02:12.904Z,78.4197
2023-05-19T04:03:15.185Z,78.4795
2023-05-19T04:05:19.616Z,78.5586
2023-05-19T04:06:21.740Z,78.5958
2023-05-19T04:07:23.857Z,78.6252
2023-05-19T04:08:25.972Z,78.6720
2023-05-19T04:09:28.090Z,78.7084
2023-05-19T04:10:31.115Z,78.7421
2023-05-19T04:18:44.900Z,78.8372
2023-05-19T04:19:47.708Z,78.8435
2023-05-19T04:20:49.877Z,78.8716
2023-05-19T04:21:51.995Z,78.9155
2023-05-19T04:22:54.610Z,78.9667
2023-05-19T04:23:56.698Z,78.9952
2023-05-19T04:24:59.532Z,79.0230
2023-05-19T04:26:02.505Z,79.0532
2023-05-19T04:34:17.067Z,79.2677
2023-05-19T04:35:19.213Z,79.2947
2023-05-19T04:36:21.379Z,79.3189
2023-05-19T04:37:24.059Z,79.3429
2023-05-19T04:38:26.819Z,79.3898
2023-05-19T04:39:28.991Z,79.4258
2023-05-19T04:40:31.384Z,79.4622
2023-05-19T04:41:33.744Z,79.4937
2023-05-19T04:42:38.960Z,79.5131
2023-05-19T04:43:38.816Z,79.5355
2023-05-19T04:44:41.613Z,79.5564
2023-05-19T04:45:44.347Z,79.5880
2023-05-19T04:46:47.387Z,79.6098
2023-05-19T04:48:49.822Z,79.6839
2023-05-19T04:52:56.492Z,79.8837
2023-05-19T04:53:59.261Z,79.9237
2023-05-19T04:55:02.062Z,79.9749
2023-05-19T04:56:04.179Z,80.0323
2023-05-19T04:58:08.920Z,80.1280
2023-05-19T05:02:15.333Z,80.2667
2023-05-19T05:03:18.274Z,80.2851
2023-05-19T05:07:26.398Z,80.5209
2023-05-19T05:14:39.627Z,81.1265
2023-05-19T05:15:39.700Z,81.1844
2023-05-19T05:16:41.868Z,81.2115
2023-05-19T05:17:44.594Z,81.2317
2023-05-19T05:18:46.796Z,81.2748
2023-05-19T05:19:48.936Z,81.3472
2023-05-19T05:20:51.096Z,81.4200
2023-05-19T05:21:53.190Z,81.4939
2023-05-19T05:22:55.276Z,81.5659
2023-05-19T05:23:57.653Z,81.6107
2023-05-19T05:24:59.787Z,81.6187
2023-05-19T05:26:01.878Z,81.6290
2023-05-19T05:27:04.656Z,81.6337
2023-05-19T05:28:07.771Z,81.6373
2023-05-19T05:43:39.354Z,81.0802
2023-05-19T05:44:42.135Z,81.0537
2023-05-19T05:45:44.956Z,81.0188
2023-05-19T05:46:47.068Z,80.9764
2023-05-19T05:47:49.196Z,80.9316
2023-05-19T05:48:51.688Z,80.8789
2023-05-19T05:49:54.422Z,80.8387
2023-05-19T05:50:57.144Z,80.7989
2023-05-19T05:53:02.678Z,80.7488
2023-05-19T05:54:04.771Z,80.7315
2023-05-19T05:55:06.902Z,80.7321
2023-05-19T05:56:09.663Z,80.7282
2023-05-19T05:57:11.817Z,80.7016
2023-05-19T05:58:14.652Z,80.6456
2023-05-19T05:59:16.754Z,80.6040
2023-05-19T06:00:18.825Z,80.5773
2023-05-19T06:01:21.572Z,80.5637
2023-05-19T06:02:23.850Z,80.5629
2023-05-19T06:03:26.097Z,80.5695
2023-05-19T06:05:30.230Z,80.5660
2023-05-19T06:06:32.978Z,80.5489
2023-05-19T06:07:35.110Z,80.5365
2023-05-19T06:08:37.238Z,80.5095
2023-05-19T06:10:00.984Z,80.4574
2023-05-19T06:17:55.487Z,80.3439
2023-05-19T06:18:58.393Z,80.3400
2023-05-19T06:26:11.941Z,80.2210
2023-05-19T06:27:14.683Z,80.1612
2023-05-19T06:28:17.656Z,80.1069
2023-05-19T06:30:19.944Z,80.0805
2023-05-19T06:31:22.921Z,80.0746
2023-05-19T06:33:25.507Z,80.0924
2023-05-19T06:34:25.903Z,80.1298
2023-05-19T06:35:28.025Z,80.1702
2023-05-19T06:37:32.653Z,80.2590
2023-05-19T06:38:35.440Z,80.2974
2023-05-19T06:39:38.130Z,80.3382
2023-05-19T06:40:40.242Z,80.3697
2023-05-19T06:41:43.103Z,80.4130
2023-05-19T06:42:45.209Z,80.4419
2023-05-19T06:43:47.322Z,80.4568
2023-05-19T06:44:50.953Z,80.4719
2023-05-19T06:45:51.316Z,80.5039
2023-05-19T06:48:55.437Z,80.6124
2023-05-19T06:49:58.562Z,80.6277
2023-05-19T06:51:59.781Z,80.6257
2023-05-19T06:53:01.977Z,80.6166
2023-05-19T06:54:04.172Z,80.6054
2023-05-19T06:55:06.514Z,80.5699
2023-05-19T06:56:14.475Z,80.5480
2023-05-19T06:57:33.209Z,80.5532
2023-05-19T07:04:23.645Z,80.7378
2023-05-19T07:05:26.503Z,80.7204
2023-05-19T07:06:28.608Z,80.6944
2023-05-19T07:07:30.689Z,80.6689
2023-05-19T07:08:32.983Z,80.6444
2023-05-19T07:09:36.217Z,80.6298
2023-05-19T07:10:39.186Z,80.6233
2023-05-19T07:11:39.643Z,80.6368
2023-05-19T07:12:41.739Z,80.6622
2023-05-19T07:13:44.167Z,80.6961
2023-05-19T07:14:46.909Z,80.7273
2023-05-19T07:15:49.613Z,80.7508
2023-05-19T07:16:51.910Z,80.7851
2023-05-19T07:17:54.383Z,80.7999
2023-05-19T07:18:55.133Z,80.8019
2023-05-19T07:19:58.131Z,80.8060
2023-05-19T07:27:11.776Z,80.9638
2023-05-19T07:28:12.200Z,81.0244
2023-05-19T07:31:17.629Z,81.1554
2023-05-19T07:32:19.915Z,81.1885
2023-05-19T07:33:21.971Z,81.1918
2023-05-19T07:34:24.330Z,81.1559
2023-05-19T07:35:26.433Z,81.1405
2023-05-19T07:36:29.144Z,81.0920
2023-05-19T07:37:31.905Z,81.0315
2023-05-19T07:38:34.718Z,80.9763
2023-05-19T07:41:41.422Z,80.7771
2023-05-19T07:42:44.557Z,80.7072
2023-05-19T07:44:46.465Z,80.3617
2023-05-19T07:45:48.584Z,80.3203
2023-05-19T07:46:51.026Z,80.3009
2023-05-19T07:47:53.169Z,80.2873
2023-05-19T07:48:56.492Z,80.2899
2023-05-19T07:49:59.212Z,80.3122
2023-05-19T07:51:01.897Z,80.3091
2023-05-19T07:52:04.940Z,80.2726
2023-05-19T07:54:06.742Z,80.1010
2023-05-19T07:55:09.474Z,80.0781
2023-05-19T07:56:11.590Z,80.0795
2023-05-19T07:57:14.298Z,80.1293
2023-05-19T07:58:16.421Z,80.1421
2023-05-19T07:59:19.139Z,80.0591
2023-05-19T08:00:21.240Z,79.9781
2023-05-19T08:01:24.080Z,79.8990
2023-05-19T08:03:28.185Z,79.6885
2023-05-19T08:06:34.286Z,79.3342
2023-05-19T08:07:36.374Z,79.1772
2023-05-19T08:08:39.152Z,78.8987
2023-05-19T08:09:41.831Z,78.7528
2023-05-19T08:10:43.914Z,78.7365
2023-05-19T08:11:45.955Z,78.7173
2023-05-19T08:14:53.055Z,78.6382
2023-05-19T08:15:55.881Z,78.6415
2023-05-19T08:16:58.562Z,78.6898
2023-05-19T08:18:01.359Z,78.7525
2023-05-19T08:19:03.448Z,78.8162
2023-05-19T08:20:06.105Z,78.8926
2023-05-19T08:21:08.752Z,78.9519
2023-05-19T08:22:10.800Z,79.0065
2023-05-19T08:23:12.871Z,79.0484
2023-05-19T08:24:15.558Z,79.0580
2023-05-19T08:25:18.212Z,79.0607
2023-05-19T08:46:04.072Z,78.8160
2023-05-19T08:47:06.277Z,78.8729
2023-05-19T08:48:08.504Z,78.9559
2023-05-19T08:49:10.562Z,78.9008
2023-05-19T08:50:12.707Z,78.7680
2023-05-19T08:51:14.828Z,78.7432
2023-05-19T08:52:16.933Z,78.7468
2023-05-19T08:53:32.539Z,78.5420
2023-05-19T08:59:30.810Z,78.1200
2023-05-19T09:00:33.179Z,78.0791
2023-05-19T09:21:12.728Z,76.4110
2023-05-19T09:22:14.902Z,76.4999
2023-05-19T09:23:17.045Z,76.5273
2023-05-19T09:24:19.070Z,76.4473
2023-05-19T09:25:21.205Z,76.3381
2023-05-19T09:26:23.328Z,76.2511
2023-05-19T09:27:25.455Z,76.1482
2023-05-19T09:28:27.630Z,75.9850
2023-05-19T09:29:29.711Z,75.9309
2023-05-19T09:30:31.804Z,75.9290
2023-05-19T09:31:33.926Z,75.9840
2023-05-19T09:32:36.060Z,75.9728
2023-05-19T09:33:38.168Z,75.8522
2023-05-19T09:34:40.246Z,75.8219
2023-05-19T09:35:42.358Z,75.8299
2023-05-19T09:36:44.588Z,75.7101
2023-05-19T09:37:46.689Z,75.4627
2023-05-19T09:38:48.936Z,75.3854
2023-05-19T09:39:51.082Z,75.4092
2023-05-19T09:40:53.151Z,75.4906
2023-05-19T09:41:55.249Z,75.5684
2023-05-19T09:42:57.404Z,75.5899
2023-05-19T09:43:59.610Z,75.6215
2023-05-19T09:45:01.679Z,75.6605
2023-05-19T09:46:03.933Z,75.6226
2023-05-19T09:47:06.084Z,75.6059
2023-05-19T09:48:08.263Z,75.5540
2023-05-19T09:49:10.328Z,75.6077
2023-05-19T09:50:12.444Z,75.6372
2023-05-19T09:51:14.495Z,75.6024
2023-05-19T09:52:16.537Z,75.5901
2023-05-19T09:53:18.636Z,75.6045
2023-05-19T09:54:20.712Z,75.6412
2023-05-19T09:55:22.772Z,75.6832
2023-05-19T09:56:24.857Z,75.6820
2023-05-19T09:57:26.905Z,75.7118
2023-05-19T09:58:28.967Z,75.7450
2023-05-19T09:59:33.351Z,75.7215
2023-05-19T10:00:33.349Z,75.7367
2023-05-19T10:01:35.659Z,75.8074
2023-05-19T10:02:37.781Z,75.8407
2023-05-19T10:03:39.900Z,75.7829
2023-05-19T10:04:42.008Z,75.6682
2023-05-19T10:05:44.064Z,75.5559
2023-05-19T10:06:46.129Z,75.5234
2023-05-19T10:07:48.256Z,75.4916
2023-05-19T10:08:50.399Z,75.4769
2023-05-19T10:09:52.478Z,75.4081
2023-05-19T10:10:54.602Z,75.3377
2023-05-19T10:11:56.709Z,75.2660
2023-05-19T10:12:58.896Z,75.0805
2023-05-19T10:14:00.937Z,74.8631
2023-05-19T10:15:03.029Z,74.4599
2023-05-19T10:16:05.156Z,74.3021
2023-05-19T10:17:07.359Z,74.0795
2023-05-19T10:18:09.716Z,74.1151
2023-05-19T10:19:11.859Z,74.1324
2023-05-19T10:20:13.938Z,74.1292
2023-05-19T10:21:16.028Z,74.0566
2023-05-19T10:22:18.120Z,73.7728
2023-05-19T10:23:20.289Z,73.1940
2023-05-19T10:24:23.162Z,73.3853
2023-05-19T10:25:25.491Z,73.5685
2023-05-19T10:26:27.601Z,73.5733
2023-05-19T10:27:29.683Z,73.5994
2023-05-19T10:28:31.784Z,73.5338
2023-05-19T10:29:33.912Z,73.3386
2023-05-19T10:30:35.967Z,73.2297
2023-05-19T10:31:38.089Z,73.0568
2023-05-19T10:32:40.313Z,72.8999
2023-05-19T10:33:42.405Z,72.5587
2023-05-19T10:34:44.561Z,72.2626
2023-05-19T10:35:47.255Z,72.2138
2023-05-19T10:36:46.792Z,72.2621
2023-05-19T10:37:48.907Z,72.3192
2023-05-19T10:38:50.928Z,72.3073
2023-05-19T10:39:53.029Z,72.1458
2023-05-19T10:40:55.113Z,72.0593
2023-05-19T10:41:57.203Z,72.0945
2023-05-19T10:42:59.257Z,72.1395
2023-05-19T10:44:01.625Z,72.2994
2023-05-19T10:45:03.744Z,72.4139
2023-05-19T10:46:05.829Z,72.4985
2023-05-19T10:47:07.960Z,72.5954
2023-05-19T10:48:10.140Z,72.7041
2023-05-19T10:49:12.214Z,72.7298
2023-05-19T10:50:14.471Z,72.6982
2023-05-19T10:51:16.759Z,72.5768
2023-05-19T10:52:18.891Z,72.3995
2023-05-19T10:53:20.991Z,72.2760
2023-05-19T10:54:23.174Z,72.1717
2023-05-19T10:55:25.317Z,71.9159
2023-05-19T10:56:28.196Z,71.7328
2023-05-19T10:58:29.358Z,71.7910
2023-05-19T10:59:31.441Z,71.8681
2023-05-19T11:00:33.593Z,71.6081
2023-05-19T11:09:51.212Z,71.3292
2023-05-19T11:10:53.298Z,71.2064
2023-05-19T11:11:55.365Z,71.2191
2023-05-19T11:14:00.075Z,71.3316
2023-05-19T11:15:02.158Z,71.2628
2023-05-19T11:16:04.226Z,71.1214
2023-05-19T11:17:06.429Z,70.9904
2023-05-19T11:18:08.509Z,70.9639
2023-05-19T11:19:10.728Z,71.0210
2023-05-19T11:20:13.014Z,70.9767
2023-05-19T11:21:15.111Z,70.9003
2023-05-19T11:22:17.476Z,70.8225
2023-05-19T11:23:19.661Z,70.7350
2023-05-19T11:24:21.786Z,70.7302
2023-05-19T11:25:23.953Z,70.7913
2023-05-19T11:26:26.061Z,70.8859
2023-05-19T11:27:28.306Z,70.9515
2023-05-19T11:28:30.321Z,71.0480
2023-05-19T11:29:32.867Z,71.0929
2023-05-19T11:30:33.509Z,71.0373
2023-05-19T11:31:35.657Z,71.0386
2023-05-19T11:32:37.797Z,70.8367
2023-05-19T11:33:39.858Z,70.3770
2023-05-19T11:34:41.904Z,70.0981
2023-05-19T11:35:43.960Z,69.9490
2023-05-19T11:36:46.117Z,69.8793
2023-05-19T11:37:48.173Z,69.8983
2023-05-19T11:38:50.234Z,69.9674
2023-05-19T11:39:52.338Z,70.0583
2023-05-19T11:40:54.378Z,70.1029
2023-05-19T11:41:56.457Z,70.2188
2023-05-19T11:42:58.506Z,70.3232
2023-05-19T11:44:00.571Z,70.2790
2023-05-19T11:45:02.591Z,70.2499
2023-05-19T11:46:04.679Z,70.2636
2023-05-19T11:47:06.728Z,70.1384
2023-05-19T11:48:08.906Z,69.7325
2023-05-19T11:49:10.948Z,69.4130
2023-05-19T11:50:13.122Z,69.0343
2023-05-19T11:51:15.153Z,68.8490
2023-05-19T11:52:17.252Z,68.5902
2023-05-19T11:53:19.324Z,68.4226
2023-05-19T11:54:21.392Z,67.9880
2023-05-19T11:55:23.519Z,67.7505
2023-05-19T11:56:25.665Z,67.6194
2023-05-19T11:57:27.725Z,67.8041
2023-05-19T11:59:33.492Z,67.7271
2023-05-19T12:00:34.712Z,67.1502
2023-05-19T12:01:36.794Z,67.0891
2023-05-19T12:02:38.968Z,67.1307
2023-05-19T12:03:41.176Z,67.1758
2023-05-19T12:04:43.322Z,67.1673
2023-05-19T12:05:45.886Z,67.1058
2023-05-19T12:06:45.629Z,66.6408
2023-05-19T12:07:47.644Z,66.3919
2023-05-19T12:08:49.663Z,66.5120
2023-05-19T12:09:51.701Z,66.6418
2023-05-19T12:10:53.669Z,66.8483
2023-05-19T12:11:55.706Z,66.9673
2023-05-19T12:12:57.682Z,67.0241
2023-05-19T12:13:59.690Z,67.9183
2023-05-19T12:15:01.656Z,67.8935
2023-05-19T12:16:03.753Z,67.9633
2023-05-19T12:17:05.792Z,67.0523
2023-05-19T12:18:07.886Z,66.7035
2023-05-19T12:19:09.996Z,66.7286
2023-05-19T12:20:12.121Z,66.7638
2023-05-19T12:21:14.497Z,66.9577
2023-05-19T12:22:16.660Z,67.2612
2023-05-19T12:23:18.654Z,66.8579
2023-05-19T12:24:20.702Z,66.7496
2023-05-19T12:25:22.714Z,66.6745
2023-05-19T12:26:24.749Z,66.4892
2023-05-19T12:27:26.817Z,66.5822
2023-05-19T12:28:28.888Z,66.5207
2023-05-19T12:29:30.929Z,66.2649
2023-05-19T12:30:33.934Z,66.1476
2023-05-19T12:31:34.015Z,65.9391
2023-05-19T12:32:36.174Z,65.7259
2023-05-19T12:33:38.208Z,65.5371
2023-05-19T12:34:40.277Z,65.1484
2023-05-19T12:35:42.350Z,64.8382
2023-05-19T12:36:44.376Z,64.4923
2023-05-19T12:37:46.473Z,64.0852
2023-05-19T12:38:48.534Z,63.9600
2023-05-19T12:39:50.865Z,63.9457
2023-05-19T12:40:52.912Z,63.8470
2023-05-19T12:41:54.911Z,63.7755
2023-05-19T12:42:56.909Z,63.8918
2023-05-19T12:43:58.902Z,64.0322
2023-05-19T12:45:02.297Z,64.1512
2023-05-19T12:46:02.318Z,64.1865
2023-05-19T12:50:10.102Z,63.7739
2023-05-19T12:51:12.348Z,63.5919
2023-05-19T12:52:14.354Z,63.3383
2023-05-19T12:53:16.438Z,63.8119
2023-05-19T12:54:18.403Z,64.1925
2023-05-19T12:55:20.845Z,64.5020
2023-05-19T12:56:22.898Z,64.8192
2023-05-19T12:57:24.993Z,65.1215
2023-05-19T12:58:27.379Z,65.3416
2023-05-19T12:59:38.351Z,65.4945
2023-05-19T13:00:31.796Z,65.4972
2023-05-19T13:01:34.250Z,65.6280
2023-05-19T13:02:36.492Z,65.8214
2023-05-19T13:03:38.760Z,65.6488
2023-05-19T13:04:40.848Z,65.2810
2023-05-19T13:05:42.885Z,64.9660
2023-05-19T13:06:44.987Z,64.8366
2023-05-19T13:07:46.996Z,64.8549
2023-05-19T13:08:49.044Z,64.2248
2023-05-19T13:09:51.097Z,64.0577
2023-05-19T13:10:53.138Z,64.2052
2023-05-19T13:11:55.334Z,64.0995
2023-05-19T13:12:57.372Z,64.0662
2023-05-19T13:13:59.524Z,64.2358
2023-05-19T13:15:01.550Z,64.2832
2023-05-19T13:16:03.650Z,63.6569
2023-05-19T13:17:05.679Z,63.6355
2023-05-19T13:18:07.791Z,63.7035
2023-05-19T13:19:23.877Z,63.9994
2023-05-19T13:20:11.923Z,64.2207
2023-05-19T13:21:14.217Z,64.3233
2023-05-19T13:22:16.254Z,64.6659
2023-05-19T13:23:18.341Z,64.8423
2023-05-19T13:24:20.376Z,65.0671
2023-05-19T13:25:22.524Z,65.1030
2023-05-19T13:26:24.712Z,65.2185
2023-05-19T13:27:26.759Z,65.4217
2023-05-19T13:28:28.917Z,65.6265
2023-05-19T13:29:31.000Z,65.8145
2023-05-19T13:30:33.342Z,65.9564
2023-05-19T13:31:35.989Z,66.1781
2023-05-19T13:32:38.186Z,66.3067
2023-05-19T13:33:40.242Z,66.3598
2023-05-19T13:34:42.459Z,66.3319
2023-05-19T13:35:44.545Z,66.3007
2023-05-19T13:36:46.943Z,66.3116
2023-05-19T13:37:49.089Z,66.0108
2023-05-19T13:38:51.152Z,65.9232
2023-05-19T13:39:53.321Z,65.9510
2023-05-19T13:40:55.381Z,65.9693
2023-05-19T13:41:57.452Z,65.9909
2023-05-19T13:42:59.544Z,66.0160
2023-05-19T13:44:01.631Z,66.0700
2023-05-19T13:45:03.764Z,66.1102
2023-05-19T13:46:05.923Z,66.0546
2023-05-19T13:47:08.105Z,65.9932
2023-05-19T13:48:10.344Z,66.0159
2023-05-19T13:49:12.466Z,66.0684
2023-05-19T13:50:14.520Z,66.0918
2023-05-19T13:51:16.696Z,66.0998
2023-05-19T13:52:18.759Z,66.0773
2023-05-19T13:53:20.915Z,66.0759
2023-05-19T13:54:22.998Z,66.1420
2023-05-19T13:55:25.088Z,66.2413
2023-05-19T13:56:27.253Z,66.1848
2023-05-19T13:57:29.352Z,66.2357
2023-05-19T13:58:31.421Z,66.3405
2023-05-19T13:59:33.519Z,66.6112
2023-05-19T14:00:35.799Z,66.8090
2023-05-19T14:01:40.429Z,66.8687
2023-05-19T14:02:40.946Z,66.9911
2023-05-19T14:03:43.240Z,67.0943
2023-05-19T14:04:45.530Z,67.1707
2023-05-19T14:05:47.661Z,67.2351
2023-05-19T14:06:49.958Z,67.3327
2023-05-19T14:07:52.139Z,67.5011
2023-05-19T14:08:54.262Z,67.5822
2023-05-19T14:09:56.418Z,67.6537
2023-05-19T14:10:58.642Z,67.7495
2023-05-19T14:12:00.855Z,67.8075
2023-05-19T14:20:17.513Z,68.5778
2023-05-19T14:21:19.692Z,68.6344
2023-05-19T14:22:21.895Z,68.6234
2023-05-19T14:23:24.144Z,68.6633
2023-05-19T14:24:26.340Z,68.7458
2023-05-19T14:25:28.567Z,68.8159
2023-05-19T14:26:30.767Z,68.9018
2023-05-19T14:27:33.187Z,68.9782
2023-05-19T14:28:35.523Z,68.9962
2023-05-19T14:29:38.052Z,68.9889
2023-05-19T14:30:40.513Z,68.9909
2023-05-19T14:31:42.728Z,69.0699
2023-05-19T14:32:44.973Z,69.2688
2023-05-19T14:33:47.115Z,69.3784
2023-05-19T14:34:49.306Z,69.4251
2023-05-19T14:35:51.522Z,69.4968
2023-05-19T14:36:53.846Z,69.5220
2023-05-19T14:37:56.106Z,69.4813
2023-05-19T14:38:58.364Z,69.4184
2023-05-19T14:40:00.608Z,69.3344
2023-05-19T14:41:02.924Z,69.2552
2023-05-19T14:42:05.379Z,69.2387
2023-05-19T14:43:07.665Z,69.2642
2023-05-19T14:44:09.999Z,69.2820
2023-05-19T14:46:14.329Z,69.3183
2023-05-19T14:47:16.620Z,69.3008
2023-05-19T14:48:18.862Z,69.2476
2023-05-19T14:49:21.284Z,69.2061
2023-05-19T14:50:23.509Z,69.2249
2023-05-19T14:51:25.778Z,69.2311
2023-05-19T14:52:28.023Z,69.2064
2023-05-19T14:53:30.367Z,69.2221
2023-05-19T14:54:32.568Z,69.3066
2023-05-19T14:55:34.877Z,69.4674
2023-05-19T14:56:37.043Z,69.7115
2023-05-19T14:57:39.338Z,69.7726
2023-05-19T14:58:41.495Z,69.7267
2023-05-19T14:59:43.672Z,69.7483
2023-05-19T15:00:45.907Z,69.7796
2023-05-19T15:01:48.180Z,69.7364
2023-05-19T15:02:50.513Z,69.7682
2023-05-19T15:03:52.821Z,69.8440
2023-05-19T15:04:55.117Z,69.8899
2023-05-19T15:05:57.319Z,69.9361
2023-05-19T15:08:02.271Z,70.0252
2023-05-19T15:09:02.852Z,70.0340
2023-05-19T15:10:05.047Z,70.0262
2023-05-19T15:11:07.247Z,70.0021
2023-05-19T15:12:09.452Z,69.9691
2023-05-19T15:13:11.652Z,69.9327
2023-05-19T15:14:11.865Z,69.9079
2023-05-19T15:15:14.070Z,69.8763
2023-05-19T15:16:17.996Z,69.8267
2023-05-19T15:17:18.625Z,69.8653
2023-05-19T15:18:20.868Z,69.9308
2023-05-19T15:19:23.213Z,69.9659
2023-05-19T15:20:26.964Z,69.9161
2023-05-19T15:21:27.746Z,69.8020
2023-05-19T15:22:30.021Z,69.7662
2023-05-19T15:23:32.350Z,69.8228
2023-05-19T15:24:52.871Z,69.8831
2023-05-19T15:30:43.850Z,70.4382
2023-05-19T15:31:46.661Z,70.5522
2023-05-19T15:32:49.540Z,70.6436
2023-05-19T15:33:52.315Z,70.7625
2023-05-19T15:34:54.474Z,70.8946
2023-05-19T15:35:56.650Z,70.9876
2023-05-19T15:36:59.483Z,71.1115
2023-05-19T15:45:13.129Z,71.6530
2023-05-19T15:50:25.135Z,71.9973
2023-05-19T15:51:28.123Z,71.9672
2023-05-19T15:52:28.324Z,71.9493
2023-05-19T15:53:30.534Z,71.9487
2023-05-19T15:55:36.160Z,71.9350
2023-05-19T15:57:37.719Z,71.9028
2023-05-19T15:58:39.920Z,71.8816
2023-05-19T15:59:42.118Z,71.8954
2023-05-19T16:08:03.255Z,71.6579
2023-05-19T16:09:03.351Z,71.6070
2023-05-19T16:11:06.068Z,71.6047
2023-05-19T16:12:08.837Z,71.6731
2023-05-19T16:13:11.025Z,72.0483
2023-05-19T16:14:13.843Z,72.2088
2023-05-19T16:15:16.220Z,72.2067
2023-05-19T16:16:21.067Z,72.1374
2023-05-19T16:33:55.901Z,71.9665
2023-05-19T16:35:57.406Z,71.9553
2023-05-19T16:37:00.350Z,71.8553
2023-05-19T16:38:03.272Z,71.8122
2023-05-19T16:39:06.179Z,71.7959
2023-05-19T16:40:08.400Z,71.7859
2023-05-19T16:41:11.254Z,71.8004
2023-05-19T16:42:10.599Z,71.8834
2023-05-19T16:43:13.753Z,71.9934
2023-05-19T16:44:15.143Z,72.0365
2023-05-19T16:47:19.862Z,71.9612
2023-05-19T16:48:20.009Z,71.9203
2023-05-19T16:49:22.167Z,71.9057
2023-05-19T16:50:25.029Z,71.9083
2023-05-19T16:55:29.958Z,72.0205
2023-05-19T16:56:32.703Z,72.1066
2023-05-19T16:57:35.452Z,72.1836
2023-05-19T16:58:38.258Z,72.2323
2023-05-19T16:59:41.277Z,72.2775
2023-05-19T17:02:46.647Z,72.4443
2023-05-19T17:06:54.094Z,72.5836
2023-05-19T17:12:03.991Z,72.6036
2023-05-19T17:13:06.210Z,72.6126
2023-05-19T17:14:09.280Z,72.6054
2023-05-19T17:26:34.537Z,73.0891
2023-05-19T17:27:33.841Z,73.1139
2023-05-19T17:28:35.986Z,73.1175
2023-05-19T17:29:38.342Z,73.1057
2023-05-19T17:30:41.127Z,73.0749
2023-05-19T17:31:44.629Z,73.0597
2023-05-19T17:44:09.965Z,73.3362
2023-05-19T17:47:10.749Z,73.4312
2023-05-19T17:49:12.616Z,73.4879
2023-05-19T17:54:22.496Z,73.5287
2023-05-19T17:55:22.634Z,73.5523
2023-05-19T17:58:27.301Z,73.7127
2023-05-19T18:04:34.851Z,73.8144
2023-05-19T18:05:37.851Z,73.8131
2023-05-19T18:10:48.137Z,73.7286
2023-05-19T18:12:50.067Z,73.7751